createdAt,value
2023-05-04T00:00:39.212Z,21.56
2023-05-04T00:03:09.313Z,21.56
2023-05-04T00:05:39.747Z,21.55
2023-05-04T00:08:10.092Z,21.46
2023-05-04T00:10:40.418Z,21.42
2023-05-04T00:13:10.346Z,21.40
2023-05-04T00:15:40.946Z,21.39
2023-05-04T00:18:10.839Z,21.39
2023-05-04T00:20:41.187Z,21.43
2023-05-04T00:23:11.114Z,21.37
2023-05-04T00:25:41.580Z,21.37
2023-05-04T00:28:11.606Z,21.38
2023-05-04T00:30:42.114Z,21.35
2023-05-04T00:33:12.633Z,21.42
2023-05-04T00:35:43.143Z,21.50
2023-05-04T00:38:14.315Z,21.53
2023-05-04T00:40:44.798Z,21.53
2023-05-04T00:43:14.715Z,21.54
2023-05-04T00:45:45.270Z,21.52
2023-05-04T00:48:15.367Z,21.51
2023-05-04T00:50:45.862Z,21.60
2023-05-04T00:53:15.834Z,21.60
2023-05-04T00:55:46.163Z,21.57
2023-05-04T00:58:17.061Z,21.55
2023-05-04T01:00:47.519Z,21.54
2023-05-04T01:03:17.500Z,21.53
2023-05-04T01:06:00.876Z,21.46
2023-05-04T01:08:34.061Z,21.50
2023-05-04T01:11:28.894Z,21.51
2023-05-04T01:13:59.074Z,21.37
2023-05-04T01:16:29.493Z,21.34
2023-05-04T01:18:59.987Z,21.35
2023-05-04T01:21:33.150Z,21.53
2023-05-04T01:24:04.546Z,21.55
2023-05-04T01:26:43.136Z,21.50
2023-05-04T01:29:45.055Z,21.45
2023-05-04T01:32:20.208Z,21.36
2023-05-04T01:34:50.238Z,21.35
2023-05-04T01:37:20.733Z,21.34
2023-05-04T01:39:50.534Z,21.30
2023-05-04T01:42:21.115Z,21.40
2023-05-04T01:44:51.087Z,21.43
2023-05-04T01:47:21.474Z,21.44
2023-05-04T01:49:52.141Z,21.48
2023-05-04T01:52:22.538Z,21.51
2023-05-04T01:54:53.391Z,21.54
2023-05-04T01:57:23.811Z,21.56
2023-05-04T01:59:53.718Z,21.62
2023-05-04T02:02:23.526Z,21.62
2023-05-04T02:04:53.927Z,21.68
2023-05-04T02:07:23.823Z,21.68
2023-05-04T02:09:54.153Z,21.62
2023-05-04T02:12:24.643Z,21.68
2023-05-04T02:14:55.051Z,21.67
2023-05-04T02:17:25.056Z,21.69
2023-05-04T02:19:55.366Z,21.73
2023-05-04T02:22:25.497Z,21.71
2023-05-04T02:24:55.839Z,21.70
2023-05-04T02:27:25.760Z,21.66
2023-05-04T02:29:56.045Z,21.70
2023-05-04T02:32:27.308Z,21.64
2023-05-04T02:34:57.711Z,21.70
2023-05-04T02:37:27.476Z,21.70
2023-05-04T02:39:58.022Z,21.67
2023-05-04T02:42:27.971Z,21.65
2023-05-04T02:44:59.099Z,21.62
2023-05-04T02:47:29.145Z,21.65
2023-05-04T02:49:59.543Z,21.65
2023-05-04T02:52:29.435Z,21.60
2023-05-04T02:55:00.739Z,21.64
2023-05-04T02:57:30.746Z,21.61
2023-05-04T03:00:01.093Z,21.64
2023-05-04T03:02:31.160Z,21.62
2023-05-04T03:05:01.609Z,21.63
2023-05-04T03:07:31.995Z,21.61
2023-05-04T03:10:03.184Z,21.63
2023-05-04T03:12:33.673Z,21.64
2023-05-04T03:15:04.225Z,21.60
2023-05-04T03:17:34.391Z,21.62
2023-05-04T03:20:05.505Z,21.60
2023-05-04T03:22:36.195Z,21.61
2023-05-04T03:25:07.319Z,21.58
2023-05-04T03:27:37.654Z,21.54
2023-05-04T03:30:09.257Z,21.49
2023-05-04T03:32:39.725Z,21.48
2023-05-04T03:35:10.431Z,21.54
2023-05-04T03:37:40.410Z,21.53
2023-05-04T03:40:11.154Z,21.53
2023-05-04T03:42:42.012Z,21.57
2023-05-04T03:45:12.818Z,21.58
2023-05-04T03:47:42.818Z,21.53
2023-05-04T03:50:14.312Z,21.57
2023-05-04T03:52:45.190Z,21.62
2023-05-04T03:55:15.548Z,21.61
2023-05-04T03:57:50.418Z,21.56
2023-05-04T04:00:21.147Z,21.50
2023-05-04T04:02:59.707Z,21.50
2023-05-04T04:05:31.481Z,21.47
2023-05-04T04:08:01.997Z,21.52
2023-05-04T04:10:32.692Z,21.55
2023-05-04T04:13:04.153Z,21.55
2023-05-04T04:15:34.523Z,21.60
2023-05-04T04:18:04.594Z,21.58
2023-05-04T04:20:35.783Z,21.61
2023-05-04T04:23:05.800Z,21.58
2023-05-04T04:25:36.147Z,21.61
2023-05-04T04:28:06.374Z,21.61
2023-05-04T04:30:36.721Z,21.57
2023-05-04T04:33:07.163Z,21.60
2023-05-04T04:35:38.186Z,21.66
2023-05-04T04:38:08.239Z,21.72
2023-05-04T04:40:38.562Z,21.68
2023-05-04T04:43:08.553Z,21.63
2023-05-04T04:45:39.264Z,21.63
2023-05-04T04:48:09.488Z,21.64
2023-05-04T04:50:42.651Z,21.65
2023-05-04T04:53:12.796Z,21.63
2023-05-04T04:55:43.332Z,21.63
2023-05-04T04:58:13.431Z,21.62
2023-05-04T05:00:43.740Z,21.61
2023-05-04T05:03:13.682Z,21.67
2023-05-04T05:05:44.080Z,21.69
2023-05-04T05:08:14.060Z,21.65
2023-05-04T05:10:44.678Z,21.65
2023-05-04T05:13:15.004Z,21.68
2023-05-04T05:15:45.568Z,21.66
2023-05-04T05:18:15.529Z,21.65
2023-05-04T05:20:45.843Z,21.61
2023-05-04T05:23:15.842Z,21.61
2023-05-04T05:25:46.269Z,21.65
2023-05-04T05:28:17.076Z,21.67
2023-05-04T05:30:47.406Z,21.70
2023-05-04T05:33:18.056Z,21.67
2023-05-04T05:35:48.519Z,21.64
2023-05-04T05:38:18.792Z,21.62
2023-05-04T05:40:50.294Z,21.56
2023-05-04T05:43:20.454Z,21.56
2023-05-04T05:45:50.966Z,21.56
2023-05-04T05:48:20.904Z,21.58
2023-05-04T05:50:51.367Z,21.55
2023-05-04T05:53:21.083Z,21.53
2023-05-04T05:55:51.424Z,21.54
2023-05-04T05:58:21.189Z,21.56
2023-05-04T06:00:51.564Z,21.54
2023-05-04T06:03:21.634Z,21.56
2023-05-04T06:05:52.128Z,21.56
2023-05-04T06:08:22.093Z,21.54
2023-05-04T06:10:52.683Z,21.58
2023-05-04T06:13:22.575Z,21.61
2023-05-04T06:15:56.488Z,21.57
2023-05-04T06:18:26.484Z,21.58
2023-05-04T06:21:03.158Z,21.59
2023-05-04T06:23:33.766Z,21.64
2023-05-04T06:26:06.092Z,21.61
2023-05-04T06:28:36.963Z,21.62
2023-05-04T06:31:07.000Z,21.60
2023-05-04T06:33:37.950Z,21.63
2023-05-04T06:36:07.978Z,21.62
2023-05-04T06:38:39.189Z,21.64
2023-05-04T06:41:09.647Z,21.64
2023-05-04T06:43:43.325Z,21.60
2023-05-04T06:46:13.316Z,21.59
2023-05-04T06:48:43.880Z,21.57
2023-05-04T06:51:13.861Z,21.58
2023-05-04T06:53:44.148Z,21.58
2023-05-04T06:56:14.198Z,21.60
2023-05-04T06:58:44.705Z,21.60
2023-05-04T07:03:45.077Z,21.67
2023-05-04T07:06:15.687Z,21.67
2023-05-04T07:08:45.498Z,21.68
2023-05-04T07:11:15.810Z,21.56
2023-05-04T07:13:47.112Z,21.52
2023-05-04T07:16:17.529Z,21.52
2023-05-04T07:18:47.661Z,21.57
2023-05-04T07:21:27.551Z,21.63
2023-05-04T07:23:59.187Z,21.68
2023-05-04T07:26:29.070Z,21.68
2023-05-04T07:28:59.392Z,21.74
2023-05-04T07:31:30.630Z,21.76
2023-05-04T07:34:01.800Z,21.75
2023-05-04T07:36:31.854Z,21.76
2023-05-04T07:39:02.275Z,21.75
2023-05-04T07:41:32.274Z,21.75
2023-05-04T07:44:06.765Z,21.71
2023-05-04T07:46:36.842Z,21.70
2023-05-04T07:49:07.795Z,21.71
2023-05-04T07:51:37.663Z,21.68
2023-05-04T07:54:07.432Z,21.67
2023-05-04T07:56:37.723Z,21.74
2023-05-04T07:59:07.441Z,21.77
2023-05-04T08:01:37.892Z,21.80
2023-05-04T08:04:07.830Z,21.79
2023-05-04T08:06:40.467Z,21.78
2023-05-04T08:09:10.872Z,21.72
2023-05-04T08:11:41.906Z,21.73
2023-05-04T08:14:12.776Z,21.79
2023-05-04T08:16:42.775Z,21.79
2023-05-04T08:19:14.828Z,21.79
2023-05-04T08:21:45.153Z,21.77
2023-05-04T08:24:15.342Z,21.79
2023-05-04T08:26:55.572Z,21.78
2023-05-04T08:29:30.311Z,21.72
2023-05-04T08:32:01.110Z,21.72
2023-05-04T08:34:31.171Z,21.72
2023-05-04T08:37:01.639Z,21.73
2023-05-04T08:39:31.783Z,21.73
2023-05-04T08:42:03.313Z,21.73
2023-05-04T08:44:33.404Z,21.70
2023-05-04T08:47:05.737Z,21.75
2023-05-04T08:49:35.737Z,21.77
2023-05-04T08:52:09.661Z,21.74
2023-05-04T08:54:41.090Z,21.74
2023-05-04T08:57:11.628Z,21.73
2023-05-04T08:59:43.145Z,21.77
2023-05-04T09:02:15.252Z,21.72
2023-05-04T09:04:45.288Z,21.73
2023-05-04T09:07:15.629Z,21.71
2023-05-04T09:09:45.821Z,21.70
2023-05-04T09:12:16.255Z,21.70
2023-05-04T09:14:47.559Z,21.70
2023-05-04T09:17:30.379Z,21.70
2023-05-04T09:20:04.967Z,21.73
2023-05-04T09:22:35.329Z,21.70
2023-05-04T09:25:12.954Z,21.67
2023-05-04T09:27:54.074Z,21.64
2023-05-04T09:30:24.127Z,21.65
2023-05-04T09:32:54.765Z,21.65
2023-05-04T09:35:33.485Z,21.62
2023-05-04T09:38:05.099Z,21.63
2023-05-04T09:40:43.359Z,21.61
2023-05-04T09:43:14.583Z,21.55
2023-05-04T09:45:49.922Z,21.49
2023-05-04T09:48:28.073Z,21.46
2023-05-04T09:50:59.956Z,21.52
2023-05-04T09:53:34.484Z,21.51
2023-05-04T09:56:14.675Z,21.46
2023-05-04T09:58:46.809Z,21.44
2023-05-04T10:01:17.804Z,21.42
2023-05-04T10:03:49.169Z,21.41
2023-05-04T10:06:19.282Z,21.44
2023-05-04T10:08:53.397Z,21.40
2023-05-04T10:11:26.878Z,21.41
2023-05-04T10:14:01.405Z,21.42
2023-05-04T10:16:46.726Z,21.43
2023-05-04T10:19:38.667Z,21.46
2023-05-04T10:22:45.172Z,21.49
2023-05-04T10:25:26.134Z,21.46
2023-05-04T10:28:14.256Z,21.53
2023-05-04T10:30:44.832Z,21.51
2023-05-04T10:33:14.986Z,21.62
2023-05-04T10:35:55.626Z,21.66
2023-05-04T10:38:36.042Z,21.70
2023-05-04T10:41:20.001Z,21.80
2023-05-04T10:43:51.976Z,21.83
2023-05-04T10:46:25.891Z,21.82
2023-05-04T10:48:55.900Z,21.77
2023-05-04T10:51:35.784Z,21.74
2023-05-04T10:54:22.465Z,21.82
2023-05-04T10:57:04.519Z,21.78
2023-05-04T10:59:36.585Z,21.76
2023-05-04T11:02:08.729Z,21.74
2023-05-04T11:04:39.758Z,21.76
2023-05-04T11:07:10.069Z,21.81
2023-05-04T11:09:42.850Z,21.84
2023-05-04T11:12:17.631Z,22.16
2023-05-04T11:14:47.592Z,22.33
2023-05-04T11:19:52.259Z,22.51
2023-05-04T11:22:23.030Z,22.57
2023-05-04T11:24:54.330Z,22.65
2023-05-04T11:27:29.632Z,22.68
2023-05-04T11:30:02.806Z,22.73
2023-05-04T11:32:51.223Z,22.76
2023-05-04T11:35:26.227Z,22.77
2023-05-04T11:37:56.949Z,22.70
2023-05-04T11:40:28.557Z,22.70
2023-05-04T11:43:00.497Z,22.68
2023-05-04T11:45:35.781Z,22.76
2023-05-04T11:48:06.809Z,22.85
2023-05-04T11:50:37.484Z,22.99
2023-05-04T11:53:10.164Z,23.10
2023-05-04T11:55:40.333Z,23.19
2023-05-04T11:58:12.667Z,23.21
2023-05-04T12:00:45.045Z,23.28
2023-05-04T12:03:48.506Z,23.69
2023-05-04T12:06:32.505Z,23.85
2023-05-04T12:09:07.369Z,23.91
2023-05-04T12:11:39.413Z,23.90
2023-05-04T12:14:15.181Z,23.98
2023-05-04T12:16:56.188Z,24.20
2023-05-04T12:19:27.185Z,24.58
2023-05-04T12:21:59.585Z,24.84
2023-05-04T12:24:30.058Z,24.93
2023-05-04T12:26:59.951Z,24.79
2023-05-04T12:29:30.246Z,24.61
2023-05-04T12:32:00.207Z,24.56
2023-05-04T12:34:30.613Z,24.60
2023-05-04T12:37:00.741Z,24.56
2023-05-04T12:39:33.234Z,24.70
2023-05-04T12:42:03.249Z,24.77
2023-05-04T12:44:34.752Z,24.97
2023-05-04T12:47:05.176Z,24.97
2023-05-04T12:49:35.530Z,25.05
2023-05-04T12:52:05.695Z,25.16
2023-05-04T12:54:36.029Z,25.19
2023-05-04T12:57:06.014Z,25.13
2023-05-04T12:59:36.294Z,25.15
2023-05-04T13:02:06.226Z,25.09
2023-05-04T13:04:36.833Z,25.03
2023-05-04T13:07:06.737Z,25.02
2023-05-04T13:09:37.269Z,25.16
2023-05-04T13:12:07.288Z,25.35
2023-05-04T13:14:39.992Z,25.64
2023-05-04T13:17:10.882Z,25.95
2023-05-04T13:19:41.188Z,26.31
2023-05-04T13:22:11.148Z,26.72
2023-05-04T13:24:42.279Z,27.05
2023-05-04T13:27:12.222Z,27.29
2023-05-04T13:29:43.136Z,27.59
2023-05-04T13:32:13.094Z,27.66
2023-05-04T13:34:44.724Z,27.95
2023-05-04T13:37:19.400Z,27.99
2023-05-04T13:39:49.951Z,28.21
2023-05-04T13:42:19.979Z,29.04
2023-05-04T13:44:50.340Z,29.92
2023-05-04T13:47:20.252Z,31.21
2023-05-04T13:49:51.886Z,32.26
2023-05-04T13:52:21.929Z,32.73
2023-05-04T13:54:52.395Z,33.68
2023-05-04T13:57:22.316Z,33.87
2023-05-04T14:00:05.751Z,33.73
2023-05-04T14:02:42.664Z,33.60
2023-05-04T14:05:13.153Z,33.10
2023-05-04T14:07:43.149Z,32.42
2023-05-04T14:10:14.160Z,31.73
2023-05-04T14:12:44.156Z,31.01
2023-05-04T14:15:14.605Z,30.29
2023-05-04T14:17:44.601Z,29.52
2023-05-04T14:20:15.168Z,29.15
2023-05-04T14:22:45.477Z,28.86
2023-05-04T14:25:16.258Z,28.95
2023-05-04T14:27:46.196Z,28.59
2023-05-04T14:30:16.877Z,28.69
2023-05-04T14:32:46.978Z,28.47
2023-05-04T14:35:18.540Z,28.25
2023-05-04T14:37:50.595Z,28.27
2023-05-04T14:40:21.491Z,28.48
2023-05-04T14:42:51.643Z,28.64
2023-05-04T14:45:22.829Z,29.18
2023-05-04T14:47:52.805Z,29.33
2023-05-04T14:50:23.567Z,29.15
2023-05-04T14:52:53.616Z,29.37
2023-05-04T14:55:24.064Z,29.66
2023-05-04T14:57:54.039Z,29.31
2023-05-04T15:00:24.440Z,28.72
2023-05-04T15:02:54.515Z,28.63
2023-05-04T15:05:24.922Z,28.47
2023-05-04T15:07:56.945Z,27.89
2023-05-04T15:10:30.592Z,27.46
2023-05-04T15:13:01.912Z,27.35
2023-05-04T15:15:32.254Z,27.11
2023-05-04T15:18:02.551Z,27.00
2023-05-04T15:20:32.939Z,27.07
2023-05-04T15:23:04.496Z,26.89
2023-05-04T15:25:34.806Z,26.69
2023-05-04T15:28:05.543Z,26.66
2023-05-04T15:30:35.896Z,26.68
2023-05-04T15:33:06.644Z,26.69
2023-05-04T15:35:37.972Z,26.80
2023-05-04T15:38:07.900Z,26.74
2023-05-04T15:40:38.390Z,26.69
2023-05-04T15:43:08.312Z,26.98
2023-05-04T15:45:38.635Z,26.87
2023-05-04T15:48:08.719Z,27.08
2023-05-04T15:50:39.123Z,27.35
2023-05-04T15:53:09.179Z,27.32
2023-05-04T15:55:39.705Z,27.13
2023-05-04T15:58:09.774Z,26.77
2023-05-04T16:00:40.129Z,26.84
2023-05-04T16:03:10.169Z,26.88
2023-05-04T16:05:40.677Z,26.88
2023-05-04T16:08:10.665Z,27.06
2023-05-04T16:10:41.283Z,27.35
2023-05-04T16:13:12.245Z,27.52
2023-05-04T16:15:42.900Z,27.76
2023-05-04T16:18:13.786Z,27.61
2023-05-04T16:20:44.098Z,27.49
2023-05-04T16:23:18.525Z,27.43
2023-05-04T16:25:48.836Z,27.58
2023-05-04T16:28:18.746Z,27.44
2023-05-04T16:30:51.985Z,27.06
2023-05-04T16:33:22.032Z,26.89
2023-05-04T16:35:52.572Z,26.73
2023-05-04T16:38:22.496Z,26.80
2023-05-04T16:40:52.876Z,26.64
2023-05-04T16:43:23.333Z,26.47
2023-05-04T16:45:53.752Z,26.37
2023-05-04T16:48:23.711Z,26.29
2023-05-04T16:50:53.990Z,26.34
2023-05-04T16:53:24.157Z,26.23
2023-05-04T16:55:54.474Z,26.02
2023-05-04T16:58:24.441Z,25.91
2023-05-04T17:00:54.797Z,26.07
2023-05-04T17:03:24.828Z,26.15
2023-05-04T17:05:55.261Z,26.06
2023-05-04T17:08:26.163Z,25.99
2023-05-04T17:11:01.170Z,26.18
2023-05-04T17:13:31.049Z,26.42
2023-05-04T17:16:01.418Z,26.80
2023-05-04T17:18:31.747Z,27.53
2023-05-04T17:21:02.201Z,28.26
2023-05-04T17:23:32.509Z,28.20
2023-05-04T17:26:03.262Z,28.53
2023-05-04T17:28:33.591Z,28.78
2023-05-04T17:31:04.096Z,28.54
2023-05-04T17:33:34.025Z,28.51
2023-05-04T17:36:05.100Z,28.32
2023-05-04T17:38:35.444Z,27.91
2023-05-04T17:41:06.093Z,27.63
2023-05-04T17:43:36.120Z,27.46
2023-05-04T17:46:06.672Z,27.39
2023-05-04T17:48:37.924Z,27.37
2023-05-04T17:51:11.689Z,27.21
2023-05-04T17:53:41.637Z,27.09
2023-05-04T17:56:12.011Z,26.98
2023-05-04T17:58:41.950Z,26.94
2023-05-04T18:01:12.426Z,26.89
2023-05-04T18:03:42.634Z,26.81
2023-05-04T18:06:13.206Z,26.71
2023-05-04T18:08:43.213Z,26.66
2023-05-04T18:11:13.971Z,26.63
2023-05-04T18:13:43.896Z,26.72
2023-05-04T18:16:14.396Z,26.72
2023-05-04T18:18:45.965Z,26.63
2023-05-04T18:21:16.260Z,26.57
2023-05-04T18:23:46.368Z,26.45
2023-05-04T18:26:21.379Z,26.32
2023-05-04T18:28:51.511Z,26.29
2023-05-04T18:31:21.927Z,26.12
2023-05-04T18:33:51.856Z,26.03
2023-05-04T18:36:22.303Z,25.80
2023-05-04T18:38:54.369Z,25.52
2023-05-04T18:41:29.315Z,25.32
2023-05-04T18:43:59.288Z,25.25
2023-05-04T18:46:29.620Z,25.09
2023-05-04T18:48:59.641Z,25.00
2023-05-04T18:51:29.928Z,24.90
2023-05-04T18:54:00.115Z,24.93
2023-05-04T18:56:30.442Z,24.90
2023-05-04T18:59:00.360Z,24.80
2023-05-04T19:01:30.687Z,24.67
2023-05-04T19:04:00.782Z,24.47
2023-05-04T19:06:32.099Z,24.37
2023-05-04T19:09:02.354Z,24.36
2023-05-04T19:11:32.713Z,24.45
2023-05-04T19:14:02.656Z,24.40
2023-05-04T19:16:33.140Z,24.20
2023-05-04T19:19:04.467Z,24.17
2023-05-04T19:21:35.178Z,24.15
2023-05-04T19:24:05.258Z,23.92
2023-05-04T19:26:35.640Z,23.77
2023-05-04T19:29:05.371Z,23.95
2023-05-04T19:31:36.428Z,23.87
2023-05-04T19:34:06.512Z,23.76
2023-05-04T19:36:37.070Z,23.83
2023-05-04T19:39:07.949Z,23.76
2023-05-04T19:41:38.354Z,23.81
2023-05-04T19:44:11.123Z,23.86
2023-05-04T19:46:42.560Z,23.84
2023-05-04T19:49:13.014Z,23.67
2023-05-04T19:51:43.437Z,24.04
2023-05-04T19:54:13.844Z,24.12
2023-05-04T19:56:44.238Z,24.13
2023-05-04T19:59:14.301Z,24.07
2023-05-04T20:01:44.742Z,23.99
2023-05-04T20:04:15.087Z,24.03
2023-05-04T20:06:45.727Z,24.04
2023-05-04T20:09:15.704Z,24.06
2023-05-04T20:11:46.249Z,24.07
2023-05-04T20:14:16.289Z,24.04
2023-05-04T20:16:46.891Z,23.96
2023-05-04T20:19:16.964Z,24.06
2023-05-04T20:21:47.381Z,24.04
2023-05-04T20:24:17.795Z,24.04
2023-05-04T20:26:48.213Z,23.97
2023-05-04T20:29:18.206Z,23.88
2023-05-04T20:31:48.675Z,23.92
2023-05-04T20:34:19.174Z,23.91
2023-05-04T20:36:49.740Z,23.80
2023-05-04T20:39:19.798Z,23.91
2023-05-04T20:41:53.384Z,23.83
2023-05-04T20:44:29.406Z,23.67
2023-05-04T20:47:07.872Z,23.72
2023-05-04T20:49:39.654Z,23.71
2023-05-04T20:52:09.844Z,23.70
2023-05-04T20:54:40.319Z,23.65
2023-05-04T20:57:10.319Z,23.51
2023-05-04T20:59:40.797Z,23.69
2023-05-04T21:02:10.759Z,23.68
2023-05-04T21:04:41.241Z,23.58
2023-05-04T21:07:11.348Z,23.55
2023-05-04T21:09:41.790Z,23.58
2023-05-04T21:12:11.766Z,23.54
2023-05-04T21:14:42.159Z,23.37
2023-05-04T21:17:12.585Z,23.35
2023-05-04T21:19:43.040Z,23.40
2023-05-04T21:22:13.370Z,23.33
2023-05-04T21:24:47.295Z,23.32
2023-05-04T21:27:17.259Z,23.27
2023-05-04T21:29:47.815Z,23.21
2023-05-04T21:32:17.820Z,23.14
2023-05-04T21:34:55.556Z,23.13
2023-05-04T21:37:25.527Z,23.08
2023-05-04T21:39:59.247Z,23.07
2023-05-04T21:42:32.247Z,23.05
2023-05-04T21:45:02.717Z,23.02
2023-05-04T21:47:32.686Z,23.01
2023-05-04T21:50:03.423Z,22.96
2023-05-04T21:52:33.358Z,22.97
2023-05-04T21:55:03.850Z,22.94
2023-05-04T21:57:34.514Z,22.96
2023-05-04T22:00:12.529Z,22.92
2023-05-04T22:02:42.523Z,22.89
2023-05-04T22:05:13.352Z,22.88
2023-05-04T22:07:43.297Z,22.90
2023-05-04T22:10:13.393Z,22.89
2023-05-04T22:12:43.729Z,22.89
2023-05-04T22:15:14.746Z,22.86
2023-05-04T22:17:45.164Z,22.87
2023-05-04T22:20:15.183Z,22.78
2023-05-04T22:22:45.559Z,22.81
2023-05-04T22:25:15.657Z,22.82
2023-05-04T22:27:46.096Z,22.76
2023-05-04T22:30:16.207Z,22.75
2023-05-04T22:32:46.699Z,22.77
2023-05-04T22:35:16.785Z,22.77
2023-05-04T22:37:49.209Z,22.76
2023-05-04T22:40:19.303Z,22.74
2023-05-04T22:42:49.084Z,22.72
2023-05-04T22:45:19.565Z,22.68
2023-05-04T22:47:49.806Z,22.73
2023-05-04T22:50:20.881Z,22.75
2023-05-04T22:52:50.919Z,22.75
2023-05-04T22:55:21.783Z,22.72
2023-05-04T22:57:51.711Z,22.69
2023-05-04T23:00:22.525Z,22.65
2023-05-04T23:02:52.517Z,22.60
2023-05-04T23:05:23.102Z,22.72
2023-05-04T23:07:53.612Z,22.76
2023-05-04T23:10:24.238Z,22.79
2023-05-04T23:12:54.229Z,22.83
2023-05-04T23:15:26.233Z,22.83
2023-05-04T23:17:56.221Z,22.82
2023-05-04T23:20:26.910Z,22.79
2023-05-04T23:22:56.946Z,22.80
2023-05-04T23:25:27.644Z,22.81
2023-05-04T23:27:57.813Z,22.83
2023-05-04T23:30:28.382Z,22.77
2023-05-04T23:32:59.626Z,22.77
2023-05-04T23:35:30.184Z,22.77
2023-05-04T23:38:00.259Z,22.76
2023-05-04T23:40:30.747Z,22.73
2023-05-04T23:43:00.979Z,22.67
2023-05-04T23:45:31.754Z,22.64
2023-05-04T23:48:01.936Z,22.65
2023-05-04T23:50:32.617Z,22.63
2023-05-04T23:53:03.154Z,22.51
2023-05-04T23:55:34.475Z,22.48
2023-05-04T23:58:04.361Z,22.53
